createdAt,value
2019-02-11T00:00:35.394Z,24.70
2019-02-11T00:01:08.580Z,24.67
2019-02-11T00:01:39.810Z,25.53
2019-02-11T00:02:12.884Z,24.57
2019-02-11T00:02:44.157Z,25.40
2019-02-11T00:03:15.440Z,24.83
2019-02-11T00:03:46.702Z,24.33
2019-02-11T00:04:17.889Z,26.07
2019-02-11T00:04:49.137Z,26.17
2019-02-11T00:05:20.318Z,26.17
2019-02-11T00:05:51.588Z,25.60
2019-02-11T00:06:22.775Z,24.77
2019-02-11T00:06:54.061Z,24.77
2019-02-11T00:07:26.267Z,23.83
2019-02-11T00:07:57.531Z,24.40
2019-02-11T00:08:28.721Z,23.73
2019-02-11T00:08:59.963Z,24.33
2019-02-11T00:09:31.183Z,25.07
2019-02-11T00:10:03.541Z,23.50
2019-02-11T00:10:34.711Z,21.97
2019-02-11T00:11:05.960Z,24.50
2019-02-11T00:11:37.161Z,23.57
2019-02-11T00:12:08.563Z,23.50
2019-02-11T00:12:39.771Z,22.23
2019-02-11T00:13:11.126Z,22.97
2019-02-11T00:13:42.370Z,23.07
2019-02-11T00:14:13.725Z,23.13
2019-02-11T00:14:44.905Z,24.70
2019-02-11T00:15:16.143Z,24.17
2019-02-11T00:15:48.351Z,25.10
2019-02-11T00:16:19.587Z,24.90
2019-02-11T00:16:50.765Z,25.43
2019-02-11T00:17:22.023Z,23.93
2019-02-11T00:17:53.296Z,24.50
2019-02-11T00:18:24.590Z,24.70
2019-02-11T00:18:55.873Z,24.50
2019-02-11T00:19:27.202Z,25.20
2019-02-11T00:19:58.486Z,25.33
2019-02-11T00:20:29.780Z,24.20
2019-02-11T00:21:01.095Z,26.57
2019-02-11T00:21:32.386Z,26.00
2019-02-11T00:22:03.712Z,24.70
2019-02-11T00:22:35.070Z,25.27
2019-02-11T00:23:06.360Z,24.53
2019-02-11T00:23:37.539Z,23.97
2019-02-11T00:24:08.802Z,23.13
2019-02-11T00:24:39.982Z,22.03
2019-02-11T00:25:11.614Z,22.93
2019-02-11T00:25:42.822Z,23.20
2019-02-11T00:26:14.092Z,22.77
2019-02-11T00:26:45.275Z,22.20
2019-02-11T00:27:16.543Z,22.53
2019-02-11T00:27:47.784Z,22.23
2019-02-11T00:28:19.046Z,22.27
2019-02-11T00:28:50.235Z,21.70
2019-02-11T00:29:21.471Z,22.23
2019-02-11T00:29:52.701Z,22.53
2019-02-11T00:30:23.943Z,21.87
2019-02-11T00:30:55.165Z,23.33
2019-02-11T00:31:26.489Z,22.97
2019-02-11T00:31:57.798Z,22.97
2019-02-11T00:32:29.096Z,22.70
2019-02-11T00:33:00.520Z,24.40
2019-02-11T00:33:31.881Z,23.27
2019-02-11T00:34:03.061Z,23.83
2019-02-11T00:34:34.305Z,24.10
2019-02-11T00:35:06.281Z,23.63
2019-02-11T00:35:37.533Z,25.00
2019-02-11T00:36:08.781Z,25.23
2019-02-11T00:36:40.132Z,24.20
2019-02-11T00:37:11.319Z,23.03
2019-02-11T00:37:42.660Z,23.97
2019-02-11T00:38:13.871Z,24.00
2019-02-11T00:38:45.168Z,22.87
2019-02-11T00:39:16.339Z,23.40
2019-02-11T00:39:47.898Z,22.73
2019-02-11T00:40:19.097Z,22.17
2019-02-11T00:40:50.343Z,22.67
2019-02-11T00:41:21.537Z,21.73
2019-02-11T00:41:52.762Z,22.17
2019-02-11T00:42:23.988Z,22.27
2019-02-11T00:42:55.213Z,20.73
2019-02-11T00:43:26.390Z,22.57
2019-02-11T00:43:57.648Z,21.93
2019-02-11T00:44:29.052Z,21.00
2019-02-11T00:45:00.430Z,21.67
2019-02-11T00:45:31.687Z,21.03
2019-02-11T00:46:03.016Z,21.07
2019-02-11T00:46:34.229Z,22.33
2019-02-11T00:47:06.497Z,21.23
2019-02-11T00:47:37.682Z,21.93
2019-02-11T00:48:09.117Z,22.43
2019-02-11T00:48:40.304Z,22.87
2019-02-11T00:49:11.679Z,23.70
2019-02-11T00:49:42.943Z,22.87
2019-02-11T00:50:14.189Z,23.90
2019-02-11T00:50:45.374Z,23.43
2019-02-11T00:51:16.645Z,23.17
2019-02-11T00:51:47.843Z,23.70
2019-02-11T00:52:19.107Z,24.57
2019-02-11T00:52:50.384Z,23.37
2019-02-11T00:53:21.719Z,23.93
2019-02-11T00:53:52.925Z,22.60
2019-02-11T00:54:25.196Z,23.87
2019-02-11T00:54:56.497Z,23.20
2019-02-11T00:55:27.733Z,22.93
2019-02-11T00:55:58.887Z,23.27
2019-02-11T00:56:30.154Z,21.67
2019-02-11T00:57:01.333Z,21.77
2019-02-11T00:57:32.596Z,22.50
2019-02-11T00:58:03.796Z,21.73
2019-02-11T00:58:35.055Z,21.80
2019-02-11T00:59:06.287Z,22.13
2019-02-11T00:59:37.543Z,20.97
2019-02-11T01:00:10.847Z,21.67
2019-02-11T01:00:42.431Z,20.50
2019-02-11T01:01:13.637Z,21.37
2019-02-11T01:01:44.872Z,21.53
2019-02-11T01:02:17.164Z,22.40
2019-02-11T01:02:48.400Z,20.40
2019-02-11T01:03:19.608Z,23.13
2019-02-11T01:03:50.854Z,22.60
2019-02-11T01:04:22.060Z,21.30
2019-02-11T01:04:53.358Z,22.13
2019-02-11T01:05:24.688Z,22.97
2019-02-11T01:05:55.959Z,22.47
2019-02-11T01:06:27.218Z,23.47
2019-02-11T01:06:58.488Z,22.67
2019-02-11T01:07:29.770Z,22.80
2019-02-11T01:08:01.028Z,23.23
2019-02-11T01:08:32.388Z,24.00
2019-02-11T01:09:04.583Z,24.33
2019-02-11T01:09:35.853Z,24.50
2019-02-11T01:10:08.689Z,23.93
2019-02-11T01:10:39.896Z,23.80
2019-02-11T01:11:11.118Z,23.20
2019-02-11T01:11:42.300Z,23.13
2019-02-11T01:12:14.486Z,22.67
2019-02-11T01:12:45.694Z,21.50
2019-02-11T01:13:16.886Z,21.77
2019-02-11T01:13:48.083Z,21.83
2019-02-11T01:14:19.309Z,21.03
2019-02-11T01:14:50.565Z,21.43
2019-02-11T01:15:21.733Z,22.57
2019-02-11T01:15:52.999Z,21.83
2019-02-11T01:16:24.200Z,21.47
2019-02-11T01:16:55.460Z,21.13
2019-02-11T01:17:26.647Z,20.63
2019-02-11T01:17:57.885Z,20.50
2019-02-11T01:18:29.085Z,21.70
2019-02-11T01:19:01.333Z,20.60
2019-02-11T01:19:32.509Z,22.13
2019-02-11T01:20:07.822Z,23.30
2019-02-11T01:20:39.097Z,22.03
2019-02-11T01:21:16.107Z,22.77
2019-02-11T01:21:55.165Z,22.07
2019-02-11T01:22:33.011Z,22.10
2019-02-11T01:23:12.051Z,22.80
2019-02-11T01:23:43.290Z,21.90
2019-02-11T01:24:14.472Z,23.67
2019-02-11T01:25:40.578Z,23.57
2019-02-11T01:26:12.240Z,23.57
2019-02-11T01:26:43.535Z,23.20
2019-02-11T01:27:14.930Z,24.33
2019-02-11T01:27:46.268Z,23.50
2019-02-11T01:28:17.565Z,22.67
2019-02-11T01:28:48.880Z,20.13
2019-02-11T01:29:20.139Z,22.33
2019-02-11T01:29:51.454Z,22.70
2019-02-11T01:30:22.705Z,21.53
2019-02-11T01:30:53.960Z,22.07
2019-02-11T01:31:25.208Z,21.10
2019-02-11T01:31:56.384Z,20.53
2019-02-11T01:32:27.635Z,20.53
2019-02-11T01:32:58.826Z,20.73
2019-02-11T01:33:30.089Z,20.53
2019-02-11T01:34:01.274Z,21.07
2019-02-11T01:34:32.528Z,19.87
2019-02-11T01:35:05.425Z,20.10
2019-02-11T01:35:36.676Z,19.87
2019-02-11T01:36:07.904Z,20.57
2019-02-11T01:36:39.304Z,20.13
2019-02-11T01:37:10.514Z,20.93
2019-02-11T01:37:41.750Z,21.23
2019-02-11T01:38:12.962Z,21.60
2019-02-11T01:38:44.231Z,22.37
2019-02-11T01:39:15.409Z,22.27
2019-02-11T01:39:46.749Z,21.53
2019-02-11T01:40:17.945Z,21.97
2019-02-11T01:40:49.207Z,21.50
2019-02-11T01:41:21.510Z,21.53
2019-02-11T01:41:52.683Z,22.63
2019-02-11T01:42:23.934Z,21.87
2019-02-11T01:42:55.112Z,21.47
2019-02-11T01:43:26.361Z,22.67
2019-02-11T01:43:57.549Z,22.43
2019-02-11T01:44:28.828Z,22.40
2019-02-11T01:45:00.005Z,21.17
2019-02-11T01:45:31.265Z,21.57
2019-02-11T01:46:02.455Z,20.90
2019-02-11T01:46:33.713Z,20.73
2019-02-11T01:47:04.929Z,20.80
2019-02-11T01:47:36.195Z,20.97
2019-02-11T01:48:07.368Z,19.33
2019-02-11T01:48:38.803Z,20.07
2019-02-11T01:49:09.948Z,20.63
2019-02-11T01:49:41.234Z,20.73
2019-02-11T01:50:12.468Z,19.33
2019-02-11T01:50:43.680Z,20.27
2019-02-11T01:51:14.869Z,18.17
2019-02-11T01:51:46.109Z,19.63
2019-02-11T01:52:17.327Z,19.90
2019-02-11T01:52:48.541Z,18.77
2019-02-11T01:53:19.751Z,19.87
2019-02-11T01:53:50.988Z,20.53
2019-02-11T01:54:22.202Z,19.60
2019-02-11T01:54:53.446Z,20.83
2019-02-11T01:55:25.632Z,19.57
2019-02-11T01:55:56.843Z,20.27
2019-02-11T01:56:28.058Z,20.63
2019-02-11T01:56:59.284Z,21.07
2019-02-11T01:57:30.506Z,21.00
2019-02-11T01:58:01.724Z,20.80
2019-02-11T01:58:32.930Z,21.17
2019-02-11T01:59:04.167Z,21.90
2019-02-11T01:59:35.380Z,21.60
2019-02-11T02:00:12.772Z,21.57
2019-02-11T02:00:44.097Z,21.17
2019-02-11T02:01:15.370Z,21.73
2019-02-11T02:01:46.647Z,20.83
2019-02-11T02:02:17.941Z,20.13
2019-02-11T02:02:49.212Z,20.17
2019-02-11T02:03:20.491Z,20.13
2019-02-11T02:03:51.792Z,20.20
2019-02-11T02:04:23.084Z,19.13
2019-02-11T02:04:54.361Z,19.47
2019-02-11T02:05:25.639Z,19.30
2019-02-11T02:05:56.861Z,18.37
2019-02-11T02:06:28.103Z,19.20
2019-02-11T02:06:59.275Z,18.90
2019-02-11T02:07:30.547Z,19.13
2019-02-11T02:08:01.709Z,19.73
2019-02-11T02:08:32.941Z,19.13
2019-02-11T02:09:04.540Z,18.33
2019-02-11T02:09:35.777Z,18.97
2019-02-11T02:10:10.992Z,18.70
2019-02-11T02:10:42.407Z,19.33
2019-02-11T02:11:13.607Z,20.00
2019-02-11T02:11:44.901Z,19.73
2019-02-11T02:12:16.108Z,19.60
2019-02-11T02:12:47.410Z,20.10
2019-02-11T02:13:18.592Z,20.40
2019-02-11T02:13:49.928Z,19.60
2019-02-11T02:14:21.110Z,19.83
2019-02-11T02:14:52.369Z,19.73
2019-02-11T02:15:23.576Z,21.33
2019-02-11T02:15:54.806Z,20.07
2019-02-11T02:16:26.014Z,20.10
2019-02-11T02:16:57.253Z,20.60
2019-02-11T02:17:28.497Z,19.90
2019-02-11T02:17:59.726Z,20.37
2019-02-11T02:18:30.941Z,19.90
2019-02-11T02:19:02.171Z,19.67
2019-02-11T02:19:33.376Z,18.73
2019-02-11T02:20:09.690Z,19.07
2019-02-11T02:20:40.924Z,17.90
2019-02-11T02:21:12.348Z,17.93
2019-02-11T02:21:43.562Z,18.93
2019-02-11T02:22:14.799Z,17.67
2019-02-11T02:22:46.016Z,17.50
2019-02-11T02:23:17.250Z,17.13
2019-02-11T02:23:48.471Z,18.23
2019-02-11T02:24:19.693Z,17.97
2019-02-11T02:24:50.893Z,18.60
2019-02-11T02:25:22.139Z,17.27
2019-02-11T02:25:53.414Z,17.67
2019-02-11T02:26:24.695Z,17.83
2019-02-11T02:26:55.997Z,17.17
2019-02-11T02:27:27.287Z,19.03
2019-02-11T02:27:58.553Z,18.33
2019-02-11T02:28:29.823Z,18.87
2019-02-11T02:29:01.101Z,19.10
2019-02-11T02:29:32.387Z,19.93
2019-02-11T02:30:07.638Z,18.43
2019-02-11T02:30:39.131Z,18.73
2019-02-11T02:31:10.361Z,19.77
2019-02-11T02:31:41.634Z,18.57
2019-02-11T02:32:12.829Z,19.47
2019-02-11T02:32:44.090Z,18.77
2019-02-11T02:33:15.391Z,19.13
2019-02-11T02:33:46.661Z,19.13
2019-02-11T02:34:17.830Z,19.23
2019-02-11T02:34:49.067Z,18.53
2019-02-11T02:35:20.316Z,18.50
2019-02-11T02:35:51.610Z,17.07
2019-02-11T02:36:22.905Z,17.27
2019-02-11T02:36:54.161Z,17.30
2019-02-11T02:37:25.450Z,16.93
2019-02-11T02:37:56.760Z,16.43
2019-02-11T02:38:28.058Z,16.27
2019-02-11T02:38:59.422Z,16.47
2019-02-11T02:39:30.839Z,15.87
2019-02-11T02:40:04.798Z,16.13
2019-02-11T02:40:36.078Z,15.17
2019-02-11T02:41:07.250Z,16.03
2019-02-11T02:41:38.461Z,15.53
2019-02-11T02:42:09.713Z,14.90
2019-02-11T02:42:40.893Z,15.33
2019-02-11T02:43:13.090Z,16.00
2019-02-11T02:43:44.315Z,15.73
2019-02-11T02:44:15.498Z,15.77
2019-02-11T02:44:46.689Z,16.10
2019-02-11T02:45:17.951Z,15.33
2019-02-11T02:45:49.174Z,16.33
2019-02-11T02:46:20.380Z,16.43
2019-02-11T02:46:51.660Z,16.27
2019-02-11T02:47:22.919Z,16.93
2019-02-11T02:47:54.173Z,16.20
2019-02-11T02:48:25.417Z,16.77
2019-02-11T02:48:56.718Z,16.47
2019-02-11T02:49:27.899Z,16.00
2019-02-11T02:49:59.159Z,16.87
2019-02-11T02:50:30.318Z,16.17
2019-02-11T02:51:01.621Z,15.50
2019-02-11T02:51:32.786Z,15.60
2019-02-11T02:52:04.051Z,15.20
2019-02-11T02:52:35.237Z,14.50
2019-02-11T02:53:07.467Z,15.20
2019-02-11T02:53:38.675Z,15.23
2019-02-11T02:54:09.953Z,15.27
2019-02-11T02:54:41.165Z,14.10
2019-02-11T02:55:12.420Z,14.30
2019-02-11T02:55:43.602Z,14.17
2019-02-11T02:56:14.879Z,15.10
2019-02-11T02:56:46.059Z,12.90
2019-02-11T02:57:17.293Z,14.20
2019-02-11T02:57:48.474Z,13.47
2019-02-11T02:58:19.734Z,14.33
2019-02-11T02:58:50.917Z,14.40
2019-02-11T02:59:22.172Z,13.07
2019-02-11T02:59:53.375Z,13.27
2019-02-11T03:00:24.636Z,12.87
2019-02-11T03:00:55.845Z,13.10
2019-02-11T03:01:27.200Z,14.27
2019-02-11T03:01:58.384Z,13.30
2019-02-11T03:02:29.620Z,14.30
2019-02-11T03:03:00.813Z,13.83
2019-02-11T03:03:32.044Z,14.40
2019-02-11T03:04:03.207Z,14.10
2019-02-11T03:04:34.463Z,14.10
2019-02-11T03:05:07.732Z,14.17
2019-02-11T03:05:38.968Z,14.30
2019-02-11T03:06:10.162Z,14.03
2019-02-11T03:06:41.767Z,14.03
2019-02-11T03:07:12.972Z,14.30
2019-02-11T03:07:44.224Z,13.60
2019-02-11T03:08:15.406Z,14.13
2019-02-11T03:08:46.668Z,13.70
2019-02-11T03:09:17.853Z,12.80
2019-02-11T03:09:49.090Z,13.03
2019-02-11T03:10:21.276Z,12.17
2019-02-11T03:10:52.542Z,12.17
2019-02-11T03:11:23.756Z,11.87
2019-02-11T03:11:54.978Z,11.37
2019-02-11T03:12:26.229Z,12.50
2019-02-11T03:12:57.409Z,11.97
2019-02-11T03:13:28.657Z,11.97
2019-02-11T03:14:05.871Z,12.17
2019-02-11T03:14:33.000Z,11.80
2019-02-11T03:15:08.199Z,11.77
2019-02-11T03:15:39.472Z,12.53
2019-02-11T03:16:10.655Z,12.17
2019-02-11T03:16:42.919Z,11.47
2019-02-11T03:17:14.103Z,11.80
2019-02-11T03:17:45.367Z,10.77
2019-02-11T03:18:16.606Z,12.60
2019-02-11T03:18:47.847Z,12.30
2019-02-11T03:19:19.035Z,11.77
2019-02-11T03:19:50.309Z,12.63
2019-02-11T03:20:21.549Z,12.60
2019-02-11T03:20:52.857Z,11.97
2019-02-11T03:21:24.016Z,13.23
2019-02-11T03:21:55.319Z,12.67
2019-02-11T03:22:26.502Z,12.23
2019-02-11T03:22:57.746Z,13.27
2019-02-11T03:23:28.973Z,12.77
2019-02-11T03:24:00.216Z,12.87
2019-02-11T03:24:31.386Z,12.47
2019-02-11T03:25:05.209Z,12.93
2019-02-11T03:25:36.402Z,12.00
2019-02-11T03:26:07.750Z,11.97
2019-02-11T03:26:39.313Z,12.67
2019-02-11T03:27:10.599Z,12.43
2019-02-11T03:27:41.799Z,12.70
2019-02-11T03:28:13.059Z,12.47
2019-02-11T03:28:44.258Z,12.17
2019-02-11T03:29:15.492Z,12.50
2019-02-11T03:29:46.686Z,11.47
2019-02-11T03:30:17.929Z,11.43
2019-02-11T03:30:49.102Z,11.87
2019-02-11T03:31:20.350Z,12.00
2019-02-11T03:31:51.547Z,11.87
2019-02-11T03:32:22.883Z,11.87
2019-02-11T03:32:54.056Z,11.90
2019-02-11T03:33:25.348Z,12.40
2019-02-11T03:33:56.553Z,11.60
2019-02-11T03:34:27.821Z,12.50
2019-02-11T03:34:59.018Z,11.80
2019-02-11T03:35:30.259Z,12.20
2019-02-11T03:36:01.443Z,12.23
2019-02-11T03:36:32.716Z,12.60
2019-02-11T03:37:03.869Z,12.33
2019-02-11T03:37:35.122Z,12.37
2019-02-11T03:38:06.289Z,12.80
2019-02-11T03:38:37.525Z,12.73
2019-02-11T03:39:08.721Z,12.07
2019-02-11T03:39:39.995Z,12.20
2019-02-11T03:40:11.285Z,12.17
2019-02-11T03:40:42.548Z,12.60
2019-02-11T03:41:13.723Z,12.43
2019-02-11T03:41:44.977Z,12.07
2019-02-11T03:42:16.138Z,12.00
2019-02-11T03:42:47.392Z,11.50
2019-02-11T03:43:18.575Z,11.47
2019-02-11T03:43:49.820Z,11.60
2019-02-11T03:44:21.024Z,10.93
2019-02-11T03:44:52.271Z,10.37
2019-02-11T03:45:23.666Z,10.43
2019-02-11T03:45:54.950Z,10.80
2019-02-11T03:46:26.150Z,11.13
2019-02-11T03:46:57.395Z,10.73
2019-02-11T03:47:28.582Z,10.87
2019-02-11T03:47:59.840Z,10.43
2019-02-11T03:48:31.062Z,11.27
2019-02-11T03:49:02.304Z,13.53
2019-02-11T03:49:33.486Z,12.43
2019-02-11T03:50:10.566Z,11.70
2019-02-11T03:50:41.760Z,12.53
2019-02-11T03:51:13.015Z,10.57
2019-02-11T03:51:44.207Z,11.77
2019-02-11T03:52:15.466Z,11.77
2019-02-11T03:52:46.656Z,10.80
2019-02-11T03:53:17.948Z,11.17
2019-02-11T03:53:49.238Z,10.73
2019-02-11T03:54:20.461Z,11.13
2019-02-11T03:54:51.644Z,11.13
2019-02-11T03:55:22.905Z,11.17
2019-02-11T03:55:54.084Z,10.73
2019-02-11T03:56:25.346Z,11.87
2019-02-11T03:56:56.561Z,11.60
2019-02-11T03:57:27.827Z,11.00
2019-02-11T03:57:59.014Z,10.70
2019-02-11T03:58:31.357Z,10.40
2019-02-11T03:59:02.542Z,10.43
2019-02-11T03:59:33.787Z,11.13
2019-02-11T04:00:09.781Z,10.30
2019-02-11T04:00:40.971Z,10.03
2019-02-11T04:01:12.204Z,10.73
2019-02-11T04:01:43.403Z,9.90
2019-02-11T04:02:14.642Z,9.87
2019-02-11T04:02:45.846Z,10.40
2019-02-11T04:03:17.044Z,10.13
2019-02-11T04:03:48.249Z,9.73
2019-02-11T04:04:19.461Z,9.43
2019-02-11T04:04:50.703Z,9.57
2019-02-11T04:05:21.922Z,10.23
2019-02-11T04:05:53.129Z,9.60
2019-02-11T04:06:24.371Z,9.47
2019-02-11T04:06:55.595Z,9.43
2019-02-11T04:07:26.809Z,9.93
2019-02-11T04:07:58.021Z,10.60
2019-02-11T04:08:29.252Z,9.87
2019-02-11T04:09:00.483Z,9.57
2019-02-11T04:09:31.679Z,10.83
2019-02-11T04:10:09.050Z,10.43
2019-02-11T04:10:40.283Z,10.87
2019-02-11T04:11:11.624Z,10.27
2019-02-11T04:11:42.852Z,10.07
2019-02-11T04:12:15.066Z,11.60
2019-02-11T04:12:46.252Z,11.30
2019-02-11T04:13:17.528Z,9.90
2019-02-11T04:13:48.806Z,10.23
2019-02-11T04:14:25.095Z,10.23
2019-02-11T04:14:53.155Z,9.90
2019-02-11T04:15:24.427Z,9.53
2019-02-11T04:15:55.618Z,9.80
2019-02-11T04:16:26.874Z,10.27
2019-02-11T04:16:58.062Z,9.13
2019-02-11T04:17:29.326Z,9.27
2019-02-11T04:18:00.506Z,9.77
2019-02-11T04:18:31.740Z,9.53
2019-02-11T04:19:02.954Z,9.63
2019-02-11T04:19:34.187Z,9.20
2019-02-11T04:20:06.764Z,11.07
2019-02-11T04:20:38.694Z,10.10
2019-02-11T04:21:09.864Z,9.50
2019-02-11T04:21:41.103Z,9.70
2019-02-11T04:22:12.292Z,9.53
2019-02-11T04:22:43.541Z,9.43
2019-02-11T04:23:14.735Z,9.40
2019-02-11T04:23:46.006Z,9.13
2019-02-11T04:24:17.205Z,10.27
2019-02-11T04:24:48.468Z,9.30
2019-02-11T04:25:19.679Z,9.30
2019-02-11T04:25:50.923Z,9.00
2019-02-11T04:26:22.146Z,9.63
2019-02-11T04:26:53.433Z,9.10
2019-02-11T04:27:24.715Z,10.57
2019-02-11T04:27:56.003Z,9.97
2019-02-11T04:28:27.271Z,8.93
2019-02-11T04:28:58.763Z,9.70
2019-02-11T04:29:30.178Z,9.63
2019-02-11T04:30:01.461Z,9.47
2019-02-11T04:30:32.642Z,9.80
2019-02-11T04:31:03.907Z,9.10
2019-02-11T04:31:35.116Z,9.40
2019-02-11T04:32:06.372Z,9.37
2019-02-11T04:32:37.569Z,9.27
2019-02-11T04:33:09.823Z,8.80
2019-02-11T04:33:41.053Z,8.33
2019-02-11T04:34:12.451Z,8.73
2019-02-11T04:34:43.688Z,8.27
2019-02-11T04:35:14.930Z,8.13
2019-02-11T04:35:46.151Z,8.20
2019-02-11T04:36:17.408Z,8.03
2019-02-11T04:36:48.590Z,8.00
2019-02-11T04:37:19.830Z,8.07
2019-02-11T04:37:51.008Z,8.07
2019-02-11T04:38:22.236Z,7.53
2019-02-11T04:38:53.404Z,7.30
2019-02-11T04:39:24.663Z,7.67
2019-02-11T04:39:55.875Z,7.47
2019-02-11T04:40:27.182Z,7.97
2019-02-11T04:40:58.481Z,8.20
2019-02-11T04:41:29.710Z,8.47
2019-02-11T04:42:00.895Z,8.13
2019-02-11T04:42:32.144Z,9.00
2019-02-11T04:43:03.321Z,7.80
2019-02-11T04:43:34.575Z,8.80
2019-02-11T04:44:05.770Z,7.63
2019-02-11T04:44:37.011Z,8.40
2019-02-11T04:45:08.681Z,8.57
2019-02-11T04:45:39.904Z,7.93
2019-02-11T04:46:11.109Z,8.63
2019-02-11T04:46:42.347Z,8.60
2019-02-11T04:47:13.529Z,9.10
2019-02-11T04:47:45.780Z,8.73
2019-02-11T04:48:16.959Z,9.10
2019-02-11T04:48:48.241Z,8.17
2019-02-11T04:49:19.421Z,8.60
2019-02-11T04:49:50.707Z,7.70
2019-02-11T04:50:21.919Z,7.40
2019-02-11T04:50:53.201Z,7.40
2019-02-11T04:51:24.487Z,7.47
2019-02-11T04:51:55.790Z,8.03
2019-02-11T04:52:27.080Z,7.57
2019-02-11T04:52:58.370Z,7.40
2019-02-11T04:53:29.650Z,7.00
2019-02-11T04:54:00.989Z,7.07
2019-02-11T04:54:32.273Z,7.40
2019-02-11T04:55:06.864Z,7.30
2019-02-11T04:55:38.109Z,7.47
2019-02-11T04:56:09.298Z,7.00
2019-02-11T04:56:40.586Z,6.20
2019-02-11T04:57:11.852Z,6.77
2019-02-11T04:57:43.099Z,7.30
2019-02-11T04:58:14.284Z,7.70
2019-02-11T04:58:45.524Z,7.27
2019-02-11T04:59:16.732Z,7.63
2019-02-11T04:59:47.966Z,8.53
2019-02-11T05:00:19.205Z,8.63
2019-02-11T05:00:50.420Z,8.77
2019-02-11T05:01:21.647Z,8.13
2019-02-11T05:01:52.882Z,7.60
2019-02-11T05:02:24.129Z,8.93
2019-02-11T05:02:55.327Z,9.20
2019-02-11T05:03:26.552Z,9.37
2019-02-11T05:03:57.756Z,10.00
2019-02-11T05:04:28.991Z,9.00
2019-02-11T05:05:00.234Z,9.20
2019-02-11T05:05:31.549Z,8.07
2019-02-11T05:06:02.757Z,7.37
2019-02-11T05:06:33.981Z,7.03
2019-02-11T05:07:06.847Z,7.87
2019-02-11T05:07:38.113Z,7.40
2019-02-11T05:08:09.325Z,7.50
2019-02-11T05:08:40.556Z,7.17
2019-02-11T05:09:11.791Z,6.77
2019-02-11T05:09:42.995Z,6.60
2019-02-11T05:10:15.426Z,6.00
2019-02-11T05:10:46.645Z,6.00
2019-02-11T05:11:17.860Z,6.63
2019-02-11T05:11:49.195Z,6.37
2019-02-11T05:12:20.419Z,6.30
2019-02-11T05:12:51.591Z,5.90
2019-02-11T05:13:22.853Z,6.20
2019-02-11T05:13:54.057Z,6.07
2019-02-11T05:14:25.306Z,6.20
2019-02-11T05:14:56.512Z,5.77
2019-02-11T05:15:27.756Z,6.60
2019-02-11T05:15:58.972Z,6.43
2019-02-11T05:16:30.200Z,6.27
2019-02-11T05:17:01.412Z,6.40
2019-02-11T05:17:32.632Z,6.90
2019-02-11T05:18:03.863Z,6.03
2019-02-11T05:18:35.163Z,6.27
2019-02-11T05:19:06.379Z,7.27
2019-02-11T05:19:37.622Z,6.80
2019-02-11T05:20:10.784Z,7.23
2019-02-11T05:20:42.354Z,6.57
2019-02-11T05:21:13.968Z,6.57
2019-02-11T05:21:45.210Z,7.10
2019-02-11T05:22:16.428Z,6.57
2019-02-11T05:22:47.670Z,6.50
2019-02-11T05:23:18.960Z,6.50
2019-02-11T05:23:50.200Z,6.20
2019-02-11T05:24:21.525Z,6.27
2019-02-11T05:24:52.859Z,6.10
2019-02-11T05:25:24.087Z,5.77
2019-02-11T05:25:55.434Z,5.77
2019-02-11T05:26:26.655Z,5.30
2019-02-11T05:26:57.995Z,6.07
2019-02-11T05:27:29.885Z,5.50
2019-02-11T05:28:01.162Z,6.00
2019-02-11T05:28:32.448Z,5.40
2019-02-11T05:29:04.657Z,6.10
2019-02-11T05:29:36.003Z,5.23
2019-02-11T05:30:10.104Z,5.50
2019-02-11T05:30:41.565Z,5.37
2019-02-11T05:31:12.803Z,5.83
2019-02-11T05:31:43.993Z,6.00
2019-02-11T05:32:15.235Z,6.07
2019-02-11T05:32:46.470Z,5.90
2019-02-11T05:33:17.745Z,5.70
2019-02-11T05:33:49.028Z,6.03
2019-02-11T05:34:20.440Z,6.23
2019-02-11T05:34:51.695Z,6.50
2019-02-11T05:35:23.925Z,6.07
2019-02-11T05:35:55.148Z,6.97
2019-02-11T05:36:26.400Z,6.73
2019-02-11T05:36:57.641Z,7.17
2019-02-11T05:37:28.884Z,7.13
2019-02-11T05:38:00.048Z,7.20
2019-02-11T05:38:31.294Z,7.50
2019-02-11T05:39:04.519Z,7.40
2019-02-11T05:39:35.766Z,7.47
2019-02-11T05:40:10.378Z,7.10
2019-02-11T05:40:41.724Z,7.50
2019-02-11T05:41:12.979Z,8.03
2019-02-11T05:41:44.283Z,8.57
2019-02-11T05:42:15.560Z,7.57
2019-02-11T05:42:46.850Z,8.13
2019-02-11T05:43:18.068Z,8.43
2019-02-11T05:43:49.306Z,8.43
2019-02-11T05:44:20.475Z,7.70
2019-02-11T05:44:53.903Z,8.43
2019-02-11T05:45:24.774Z,9.00
2019-02-11T05:45:56.042Z,9.07
2019-02-11T05:46:27.352Z,9.23
2019-02-11T05:46:58.557Z,9.70
2019-02-11T05:47:29.872Z,9.93
2019-02-11T05:48:01.107Z,11.20
2019-02-11T05:48:32.310Z,10.40
2019-02-11T05:49:03.531Z,10.50
2019-02-11T05:49:34.746Z,10.37
2019-02-11T05:50:09.385Z,10.87
2019-02-11T05:50:40.627Z,11.27
2019-02-11T05:51:11.918Z,11.57
2019-02-11T05:51:43.146Z,11.30
2019-02-11T05:52:14.355Z,9.23
2019-02-11T05:52:45.577Z,9.70
2019-02-11T05:53:16.802Z,10.07
2019-02-11T05:53:48.019Z,10.10
2019-02-11T05:54:19.222Z,10.23
2019-02-11T05:54:50.435Z,9.20
2019-02-11T05:55:23.858Z,9.27
2019-02-11T05:55:54.769Z,8.20
2019-02-11T05:56:26.008Z,8.17
2019-02-11T05:56:57.159Z,8.53
2019-02-11T05:57:28.486Z,7.87
2019-02-11T05:57:59.659Z,7.73
2019-02-11T05:58:30.921Z,7.40
2019-02-11T05:59:02.128Z,6.77
2019-02-11T05:59:34.481Z,6.87
2019-02-11T06:00:10.250Z,5.87
2019-02-11T06:00:41.723Z,5.93
2019-02-11T06:01:13.024Z,6.57
2019-02-11T06:01:44.311Z,6.53
2019-02-11T06:02:17.411Z,6.17
2019-02-11T06:02:48.670Z,5.90
2019-02-11T06:03:19.968Z,6.27
2019-02-11T06:03:51.243Z,6.07
2019-02-11T06:04:22.470Z,5.47
2019-02-11T06:04:53.702Z,5.43
2019-02-11T06:05:24.884Z,5.67
2019-02-11T06:05:56.134Z,6.27
2019-02-11T06:06:27.386Z,6.43
2019-02-11T06:06:58.644Z,5.70
2019-02-11T06:07:29.933Z,5.93
2019-02-11T06:08:01.214Z,6.00
2019-02-11T06:08:32.532Z,6.00
2019-02-11T06:09:04.319Z,6.07
2019-02-11T06:09:35.578Z,5.87
2019-02-11T06:10:08.965Z,6.00
2019-02-11T06:10:40.236Z,6.13
2019-02-11T06:11:11.614Z,5.83
2019-02-11T06:11:42.863Z,5.90
2019-02-11T06:12:14.051Z,5.63
2019-02-11T06:12:45.322Z,5.67
2019-02-11T06:13:16.539Z,5.60
2019-02-11T06:13:47.751Z,5.13
2019-02-11T06:14:19.035Z,5.47
2019-02-11T06:14:50.226Z,5.63
2019-02-11T06:15:21.419Z,5.80
2019-02-11T06:15:52.638Z,5.43
2019-02-11T06:16:23.838Z,5.10
2019-02-11T06:16:55.104Z,5.63
2019-02-11T06:17:26.329Z,5.90
2019-02-11T06:17:57.528Z,5.30
2019-02-11T06:18:28.735Z,5.57
2019-02-11T06:18:59.986Z,5.53
2019-02-11T06:19:31.198Z,5.17
2019-02-11T06:20:05.523Z,5.43
2019-02-11T06:20:36.747Z,5.30
2019-02-11T06:21:07.950Z,4.97
2019-02-11T06:21:39.425Z,5.07
2019-02-11T06:22:10.657Z,5.27
2019-02-11T06:22:41.878Z,4.97
2019-02-11T06:23:13.191Z,4.67
2019-02-11T06:23:44.403Z,5.27
2019-02-11T06:24:15.630Z,5.37
2019-02-11T06:24:46.843Z,5.57
2019-02-11T06:25:18.056Z,5.50
2019-02-11T06:25:49.288Z,5.60
2019-02-11T06:26:20.562Z,5.10
2019-02-11T06:26:51.866Z,5.23
2019-02-11T06:27:23.138Z,5.57
2019-02-11T06:27:54.319Z,5.13
2019-02-11T06:28:25.570Z,4.83
2019-02-11T06:28:56.753Z,5.10
2019-02-11T06:29:27.993Z,4.87
2019-02-11T06:29:59.201Z,5.20
2019-02-11T06:30:30.718Z,5.63
2019-02-11T06:31:01.871Z,5.67
2019-02-11T06:31:33.104Z,5.10
2019-02-11T06:32:04.312Z,4.80
2019-02-11T06:32:35.612Z,5.00
2019-02-11T06:33:06.794Z,5.20
2019-02-11T06:33:38.066Z,5.03
2019-02-11T06:34:09.250Z,4.60
2019-02-11T06:34:40.659Z,4.87
2019-02-11T06:35:11.846Z,4.90
2019-02-11T06:35:43.227Z,4.87
2019-02-11T06:36:14.396Z,4.97
2019-02-11T06:36:45.639Z,4.73
2019-02-11T06:37:16.836Z,5.00
2019-02-11T06:37:48.117Z,4.53
2019-02-11T06:38:19.310Z,4.90
2019-02-11T06:38:50.655Z,4.60
2019-02-11T06:39:21.839Z,4.80
2019-02-11T06:39:53.067Z,4.27
2019-02-11T06:40:24.241Z,4.87
2019-02-11T06:40:55.487Z,4.90
2019-02-11T06:41:26.662Z,4.90
2019-02-11T06:41:57.897Z,4.50
2019-02-11T06:42:29.083Z,4.67
2019-02-11T06:43:00.309Z,5.00
2019-02-11T06:43:31.502Z,5.10
2019-02-11T06:44:02.724Z,4.93
2019-02-11T06:44:33.942Z,5.03
2019-02-11T06:45:13.088Z,5.07
2019-02-11T06:45:41.225Z,4.83
2019-02-11T06:46:12.443Z,5.13
2019-02-11T06:46:43.673Z,4.90
2019-02-11T06:47:14.919Z,5.40
2019-02-11T06:47:46.156Z,5.30
2019-02-11T06:48:17.304Z,5.10
2019-02-11T06:48:48.474Z,4.93
2019-02-11T06:49:19.676Z,5.27
2019-02-11T06:49:50.914Z,5.07
2019-02-11T06:50:22.075Z,4.73
2019-02-11T06:50:53.298Z,4.80
2019-02-11T06:51:24.522Z,5.23